Terminal Aerodrome Forecast
Issued by NWS Goodland, KS

Home | Current Version | Previous Version | Text Only | Print | Product List | Glossary On
Versions: 1 2 3 4 5 6 7 8 9 10 11 12
000
FTUS43 KGLD 241725
TAFGLD
TAF
KGLD 241725Z 2418/2518 32015G25KT P6SM BKN250
     FM250000 31014G22KT P6SM OVC045
     FM250600 31014G22KT P6SM SCT250=

USA.gov is the U.S. government's official web portal to all federal, state and local government web resources and services.